LIPY Airport Information

Runway Information
Runway 04 Length 9718 ft width 148 ft
Elevation 47 ft Threshold 641 ft Heading 45
Runway 22 Length 9718 ft Width 148 ft
Elevation 29 ft Threshold 492 ft Heading 225
Airport Frequencies
Type APP Name ROMAGNA AP Frequency 37.975 MHZ
Type APP Name ROMAGNA AP Frequency 118.15 MHZ
Type ATIS Name ATIS Frequency 122.85 MHZ
Type TWR Name TWR Frequency 119.8 MHZ
Airport Navaids
Type VOR-DME Name Ancona Frequency 110650 KHZ
Type NDB Name Ancona Frequency 375 KHZ
Type TACAN Name Falconara Frequency 109800 KHZ
Type NDB Name Falconara Frequency 358 KHZ
Airport Weather Information & NOTAM
ADDS - METARS form results

(1311 UTC 22 June 2018)
 
METAR text: LIPY 221250Z 07008G18KT 9999 -RA SCT015CB BKN030 21/19 Q1012 RERA
Conditions at: LIPY (FALCONARA (IT-AF, IT) observed 1250 UTC 22 June 2018
Temperature: 21.0°C (70°F)
Dewpoint: 19.0°C (66°F) [RH = 88%]
Pressure (altimeter): 29.88 inches Hg (1012.0 mb)
Winds: from the ENE (70 degrees) at 9 MPH (8 knots; 4.2 m/s)
gusting to 21 MPH (18 knots; 9.4 m/s)
Visibility: 6 or more miles (10+ km)
Ceiling: 3000 feet AGL
Clouds: scattered clouds at 1500 feet AGL
broken clouds at 3000 feet AGL
Weather: -RA  (light rain)